sensor_id;sensor_type;location;lat;lon;timestamp;P1;durP1;ratioP1;P2;durP2;ratioP2
30888;SDS011;51092;50.874;7.024;2022-11-15T00:01:00;16.08;;;10.98;;
30888;SDS011;51092;50.874;7.024;2022-11-15T00:02:02;15.82;;;10.88;;
30888;SDS011;51092;50.874;7.024;2022-11-15T00:03:04;12.18;;;10.27;;
30888;SDS011;51092;50.874;7.024;2022-11-15T00:04:06;13.35;;;9.48;;
30888;SDS011;51092;50.874;7.024;2022-11-15T00:05:09;17.63;;;10.93;;
30888;SDS011;51092;50.874;7.024;2022-11-15T00:06:11;15.63;;;10.23;;
30888;SDS011;51092;50.874;7.024;2022-11-15T00:07:12;12.05;;;10.00;;
30888;SDS011;51092;50.874;7.024;2022-11-15T00:08:15;12.10;;;9.10;;
30888;SDS011;51092;50.874;7.024;2022-11-15T00:09:16;11.35;;;9.73;;
30888;SDS011;51092;50.874;7.024;2022-11-15T00:10:19;12.20;;;9.18;;
30888;SDS011;51092;50.874;7.024;2022-11-15T00:11:20;17.63;;;10.63;;
30888;SDS011;51092;50.874;7.024;2022-11-15T00:12:22;17.25;;;10.10;;
30888;SDS011;51092;50.874;7.024;2022-11-15T00:13:23;12.85;;;9.35;;
30888;SDS011;51092;50.874;7.024;2022-11-15T00:14:25;13.30;;;10.35;;
30888;SDS011;51092;50.874;7.024;2022-11-15T00:15:28;15.65;;;10.10;;
30888;SDS011;51092;50.874;7.024;2022-11-15T00:16:29;14.05;;;9.15;;
30888;SDS011;51092;50.874;7.024;2022-11-15T00:17:32;15.02;;;10.02;;
30888;SDS011;51092;50.874;7.024;2022-11-15T00:18:33;12.13;;;9.35;;
30888;SDS011;51092;50.874;7.024;2022-11-15T00:19:36;12.75;;;9.48;;
30888;SDS011;51092;50.874;7.024;2022-11-15T00:20:39;12.55;;;9.90;;
30888;SDS011;51092;50.874;7.024;2022-11-15T00:21:42;13.60;;;10.43;;
30888;SDS011;51092;50.874;7.024;2022-11-15T00:22:44;12.77;;;8.98;;
30888;SDS011;51092;50.874;7.024;2022-11-15T00:23:46;15.25;;;10.07;;
30888;SDS011;51092;50.874;7.024;2022-11-15T00:24:48;12.02;;;8.60;;
30888;SDS011;51092;50.874;7.024;2022-11-15T00:25:55;11.50;;;8.63;;
30888;SDS011;51092;50.874;7.024;2022-11-15T00:26:57;15.43;;;9.25;;
30888;SDS011;51092;50.874;7.024;2022-11-15T00:28:00;14.63;;;10.63;;
30888;SDS011;51092;50.874;7.024;2022-11-15T00:29:02;20.92;;;11.13;;
30888;SDS011;51092;50.874;7.024;2022-11-15T00:30:05;14.77;;;9.48;;
30888;SDS011;51092;50.874;7.024;2022-11-15T00:31:08;11.77;;;10.07;;
30888;SDS011;51092;50.874;7.024;2022-11-15T00:32:13;11.23;;;9.57;;
30888;SDS011;51092;50.874;7.024;2022-11-15T00:33:14;13.98;;;10.50;;
30888;SDS011;51092;50.874;7.024;2022-11-15T00:34:18;14.82;;;11.15;;
30888;SDS011;51092;50.874;7.024;2022-11-15T00:35:20;15.18;;;10.95;;
30888;SDS011;51092;50.874;7.024;2022-11-15T00:36:25;12.38;;;9.45;;
30888;SDS011;51092;50.874;7.024;2022-11-15T00:37:26;14.25;;;9.30;;
30888;SDS011;51092;50.874;7.024;2022-11-15T00:38:30;13.77;;;9.70;;
30888;SDS011;51092;50.874;7.024;2022-11-15T00:39:33;14.45;;;11.40;;
30888;SDS011;51092;50.874;7.024;2022-11-15T00:40:36;16.02;;;10.50;;
30888;SDS011;51092;50.874;7.024;2022-11-15T00:41:37;21.10;;;12.57;;
30888;SDS011;51092;50.874;7.024;2022-11-15T00:42:40;14.98;;;10.05;;
30888;SDS011;51092;50.874;7.024;2022-11-15T00:43:42;10.75;;;9.38;;
30888;SDS011;51092;50.874;7.024;2022-11-15T00:44:45;15.93;;;10.95;;
30888;SDS011;51092;50.874;7.024;2022-11-15T00:45:46;16.15;;;10.00;;
30888;SDS011;51092;50.874;7.024;2022-11-15T00:46:49;13.30;;;10.00;;
30888;SDS011;51092;50.874;7.024;2022-11-15T00:47:53;12.30;;;9.93;;
30888;SDS011;51092;50.874;7.024;2022-11-15T00:48:55;13.30;;;10.13;;
30888;SDS011;51092;50.874;7.024;2022-11-15T00:49:56;17.75;;;11.02;;
30888;SDS011;51092;50.874;7.024;2022-11-15T00:50:59;12.13;;;9.43;;
30888;SDS011;51092;50.874;7.024;2022-11-15T00:52:01;13.10;;;9.60;;
30888;SDS011;51092;50.874;7.024;2022-11-15T00:53:03;15.45;;;9.85;;
30888;SDS011;51092;50.874;7.024;2022-11-15T00:54:05;12.30;;;9.98;;
30888;SDS011;51092;50.874;7.024;2022-11-15T00:55:08;11.88;;;9.48;;
30888;SDS011;51092;50.874;7.024;2022-11-15T00:56:14;17.20;;;9.40;;
30888;SDS011;51092;50.874;7.024;2022-11-15T00:57:16;17.80;;;10.02;;
30888;SDS011;51092;50.874;7.024;2022-11-15T00:58:18;11.88;;;9.63;;
30888;SDS011;51092;50.874;7.024;2022-11-15T00:59:20;12.98;;;9.52;;
30888;SDS011;51092;50.874;7.024;2022-11-15T01:00:22;14.82;;;9.60;;
30888;SDS011;51092;50.874;7.024;2022-11-15T01:01:24;15.15;;;9.85;;
30888;SDS011;51092;50.874;7.024;2022-11-15T01:02:25;15.93;;;9.50;;
30888;SDS011;51092;50.874;7.024;2022-11-15T01:03:28;15.50;;;10.50;;
30888;SDS011;51092;50.874;7.024;2022-11-15T01:04:32;13.00;;;10.23;;
30888;SDS011;51092;50.874;7.024;2022-11-15T01:05:36;17.85;;;10.45;;
30888;SDS011;51092;50.874;7.024;2022-11-15T01:06:38;12.27;;;9.63;;
30888;SDS011;51092;50.874;7.024;2022-11-15T01:07:42;14.40;;;10.00;;
30888;SDS011;51092;50.874;7.024;2022-11-15T01:08:44;13.55;;;10.88;;
30888;SDS011;51092;50.874;7.024;2022-11-15T01:09:46;18.67;;;10.98;;
30888;SDS011;51092;50.874;7.024;2022-11-15T01:10:48;15.32;;;9.95;;
30888;SDS011;51092;50.874;7.024;2022-11-15T01:11:50;14.18;;;10.10;;
30888;SDS011;51092;50.874;7.024;2022-11-15T01:12:53;11.98;;;9.90;;
30888;SDS011;51092;50.874;7.024;2022-11-15T01:13:55;15.05;;;10.30;;
30888;SDS011;51092;50.874;7.024;2022-11-15T01:14:57;16.23;;;10.90;;
30888;SDS011;51092;50.874;7.024;2022-11-15T01:16:04;17.95;;;10.98;;
30888;SDS011;51092;50.874;7.024;2022-11-15T01:17:07;16.75;;;10.73;;
30888;SDS011;51092;50.874;7.024;2022-11-15T01:18:09;16.67;;;10.00;;
30888;SDS011;51092;50.874;7.024;2022-11-15T01:19:11;15.43;;;10.55;;
30888;SDS011;51092;50.874;7.024;2022-11-15T01:20:13;16.98;;;11.43;;
30888;SDS011;51092;50.874;7.024;2022-11-15T01:21:17;10.65;;;8.52;;
30888;SDS011;51092;50.874;7.024;2022-11-15T01:22:20;13.85;;;9.73;;
30888;SDS011;51092;50.874;7.024;2022-11-15T01:23:23;13.48;;;10.80;;
30888;SDS011;51092;50.874;7.024;2022-11-15T01:24:26;14.30;;;10.15;;
30888;SDS011;51092;50.874;7.024;2022-11-15T01:25:28;15.63;;;10.40;;
30888;SDS011;51092;50.874;7.024;2022-11-15T01:26:30;15.73;;;10.80;;
30888;SDS011;51092;50.874;7.024;2022-11-15T01:27:33;13.32;;;9.65;;
30888;SDS011;51092;50.874;7.024;2022-11-15T01:28:35;14.40;;;10.38;;
30888;SDS011;51092;50.874;7.024;2022-11-15T01:29:39;11.75;;;10.13;;
30888;SDS011;51092;50.874;7.024;2022-11-15T01:30:41;15.55;;;10.43;;
30888;SDS011;51092;50.874;7.024;2022-11-15T01:31:43;13.70;;;10.02;;
30888;SDS011;51092;50.874;7.024;2022-11-15T01:32:45;13.52;;;9.50;;
30888;SDS011;51092;50.874;7.024;2022-11-15T01:33:48;12.85;;;9.38;;
30888;SDS011;51092;50.874;7.024;2022-11-15T01:34:50;13.45;;;9.55;;
30888;SDS011;51092;50.874;7.024;2022-11-15T01:35:52;12.50;;;9.13;;
30888;SDS011;51092;50.874;7.024;2022-11-15T01:36:54;15.20;;;10.15;;
30888;SDS011;51092;50.874;7.024;2022-11-15T01:37:57;19.33;;;9.88;;
30888;SDS011;51092;50.874;7.024;2022-11-15T01:38:59;13.73;;;9.82;;
30888;SDS011;51092;50.874;7.024;2022-11-15T01:40:02;15.70;;;10.25;;
30888;SDS011;51092;50.874;7.024;2022-11-15T01:41:04;12.32;;;9.75;;
30888;SDS011;51092;50.874;7.024;2022-11-15T01:42:08;15.38;;;10.00;;
30888;SDS011;51092;50.874;7.024;2022-11-15T01:43:19;15.18;;;8.85;;
30888;SDS011;51092;50.874;7.024;2022-11-15T01:44:40;14.48;;;9.20;;
30888;SDS011;51092;50.874;7.024;2022-11-15T01:45:44;19.80;;;9.60;;
30888;SDS011;51092;50.874;7.024;2022-11-15T01:46:50;16.52;;;10.52;;
30888;SDS011;51092;50.874;7.024;2022-11-15T01:47:53;15.43;;;10.05;;
30888;SDS011;51092;50.874;7.024;2022-11-15T01:48:57;12.57;;;9.90;;
30888;SDS011;51092;50.874;7.024;2022-11-15T01:50:04;12.02;;;8.90;;
30888;SDS011;51092;50.874;7.024;2022-11-15T01:51:09;14.43;;;9.32;;
30888;SDS011;51092;50.874;7.024;2022-11-15T01:52:17;10.63;;;8.73;;
30888;SDS011;51092;50.874;7.024;2022-11-15T01:53:21;11.30;;;8.38;;
30888;SDS011;51092;50.874;7.024;2022-11-15T01:54:28;11.35;;;8.98;;
30888;SDS011;51092;50.874;7.024;2022-11-15T01:55:29;11.43;;;8.20;;
30888;SDS011;51092;50.874;7.024;2022-11-15T01:56:32;11.10;;;8.65;;
30888;SDS011;51092;50.874;7.024;2022-11-15T01:57:37;13.55;;;10.05;;
30888;SDS011;51092;50.874;7.024;2022-11-15T01:58:40;10.30;;;9.15;;
30888;SDS011;51092;50.874;7.024;2022-11-15T01:59:43;14.32;;;8.68;;
30888;SDS011;51092;50.874;7.024;2022-11-15T02:00:47;14.75;;;9.68;;
30888;SDS011;51092;50.874;7.024;2022-11-15T02:01:50;9.80;;;8.43;;
30888;SDS011;51092;50.874;7.024;2022-11-15T02:02:53;11.18;;;9.95;;
30888;SDS011;51092;50.874;7.024;2022-11-15T02:03:57;13.50;;;9.00;;
30888;SDS011;51092;50.874;7.024;2022-11-15T02:05:01;13.77;;;8.95;;
30888;SDS011;51092;50.874;7.024;2022-11-15T02:06:04;12.57;;;8.73;;
30888;SDS011;51092;50.874;7.024;2022-11-15T02:07:08;13.23;;;8.40;;
30888;SDS011;51092;50.874;7.024;2022-11-15T02:08:12;12.32;;;9.40;;
30888;SDS011;51092;50.874;7.024;2022-11-15T02:09:20;11.27;;;9.05;;
30888;SDS011;51092;50.874;7.024;2022-11-15T02:10:24;11.38;;;8.88;;
30888;SDS011;51092;50.874;7.024;2022-11-15T02:11:27;12.52;;;9.02;;
30888;SDS011;51092;50.874;7.024;2022-11-15T02:12:29;12.68;;;9.65;;
30888;SDS011;51092;50.874;7.024;2022-11-15T02:13:32;13.13;;;8.98;;
30888;SDS011;51092;50.874;7.024;2022-11-15T02:14:34;12.73;;;9.55;;
30888;SDS011;51092;50.874;7.024;2022-11-15T02:15:40;14.40;;;9.00;;
30888;SDS011;51092;50.874;7.024;2022-11-15T02:16:48;10.57;;;8.35;;
30888;SDS011;51092;50.874;7.024;2022-11-15T02:18:07;11.68;;;8.27;;
30888;SDS011;51092;50.874;7.024;2022-11-15T02:19:22;12.93;;;8.70;;
30888;SDS011;51092;50.874;7.024;2022-11-15T02:20:39;13.52;;;8.98;;
30888;SDS011;51092;50.874;7.024;2022-11-15T02:21:55;10.50;;;8.75;;
30888;SDS011;51092;50.874;7.024;2022-11-15T02:23:14;13.93;;;9.55;;
30888;SDS011;51092;50.874;7.024;2022-11-15T02:24:49;15.18;;;9.30;;
30888;SDS011;51092;50.874;7.024;2022-11-15T02:26:12;13.88;;;8.43;;
30888;SDS011;51092;50.874;7.024;2022-11-15T02:27:54;11.15;;;8.80;;
30888;SDS011;51092;50.874;7.024;2022-11-15T02:29:08;14.73;;;9.50;;
30888;SDS011;51092;50.874;7.024;2022-11-15T02:30:22;14.27;;;9.82;;
30888;SDS011;51092;50.874;7.024;2022-11-15T02:31:32;12.95;;;8.60;;
30888;SDS011;51092;50.874;7.024;2022-11-15T02:32:40;11.50;;;8.43;;
30888;SDS011;51092;50.874;7.024;2022-11-15T02:33:50;13.15;;;8.25;;
30888;SDS011;51092;50.874;7.024;2022-11-15T02:35:01;14.68;;;8.77;;
30888;SDS011;51092;50.874;7.024;2022-11-15T02:36:13;12.40;;;9.20;;
30888;SDS011;51092;50.874;7.024;2022-11-15T02:37:21;13.25;;;9.07;;
30888;SDS011;51092;50.874;7.024;2022-11-15T02:38:33;9.77;;;7.88;;
30888;SDS011;51092;50.874;7.024;2022-11-15T02:39:40;13.43;;;7.80;;
30888;SDS011;51092;50.874;7.024;2022-11-15T02:40:53;16.40;;;9.15;;
30888;SDS011;51092;50.874;7.024;2022-11-15T02:42:00;15.10;;;8.93;;
30888;SDS011;51092;50.874;7.024;2022-11-15T02:43:06;12.68;;;9.10;;
30888;SDS011;51092;50.874;7.024;2022-11-15T02:44:30;12.05;;;7.82;;
30888;SDS011;51092;50.874;7.024;2022-11-15T02:45:37;12.10;;;8.23;;
30888;SDS011;51092;50.874;7.024;2022-11-15T02:46:45;13.35;;;8.45;;
30888;SDS011;51092;50.874;7.024;2022-11-15T02:48:09;11.20;;;8.45;;
30888;SDS011;51092;50.874;7.024;2022-11-15T02:49:13;11.35;;;9.15;;
30888;SDS011;51092;50.874;7.024;2022-11-15T02:50:16;11.15;;;8.45;;
30888;SDS011;51092;50.874;7.024;2022-11-15T02:51:21;11.75;;;8.85;;
30888;SDS011;51092;50.874;7.024;2022-11-15T02:52:23;12.43;;;9.65;;
30888;SDS011;51092;50.874;7.024;2022-11-15T02:53:27;14.60;;;9.50;;
30888;SDS011;51092;50.874;7.024;2022-11-15T02:54:29;14.15;;;9.38;;
30888;SDS011;51092;50.874;7.024;2022-11-15T02:55:34;16.55;;;8.57;;
30888;SDS011;51092;50.874;7.024;2022-11-15T02:56:37;10.60;;;8.20;;
30888;SDS011;51092;50.874;7.024;2022-11-15T02:57:43;11.75;;;8.45;;
30888;SDS011;51092;50.874;7.024;2022-11-15T02:59:04;10.93;;;8.00;;
30888;SDS011;51092;50.874;7.024;2022-11-15T03:00:20;12.43;;;7.72;;
30888;SDS011;51092;50.874;7.024;2022-11-15T03:01:28;12.25;;;7.85;;
30888;SDS011;51092;50.874;7.024;2022-11-15T03:02:42;11.70;;;8.27;;
30888;SDS011;51092;50.874;7.024;2022-11-15T03:03:59;10.48;;;8.27;;
30888;SDS011;51092;50.874;7.024;2022-11-15T03:05:12;11.68;;;8.30;;
30888;SDS011;51092;50.874;7.024;2022-11-15T03:06:21;12.00;;;7.70;;
30888;SDS011;51092;50.874;7.024;2022-11-15T03:07:32;11.20;;;8.07;;
30888;SDS011;51092;50.874;7.024;2022-11-15T03:08:40;10.23;;;7.57;;
30888;SDS011;51092;50.874;7.024;2022-11-15T03:09:53;16.52;;;7.63;;
30888;SDS011;51092;50.874;7.024;2022-11-15T03:11:03;10.95;;;7.35;;
30888;SDS011;51092;50.874;7.024;2022-11-15T03:12:11;10.50;;;8.23;;
30888;SDS011;51092;50.874;7.024;2022-11-15T03:13:21;9.13;;;7.40;;
30888;SDS011;51092;50.874;7.024;2022-11-15T03:14:28;10.32;;;7.05;;
30888;SDS011;51092;50.874;7.024;2022-11-15T03:15:36;8.73;;;7.15;;
30888;SDS011;51092;50.874;7.024;2022-11-15T03:16:44;12.43;;;7.75;;
30888;SDS011;51092;50.874;7.024;2022-11-15T03:17:51;11.25;;;8.35;;
30888;SDS011;51092;50.874;7.024;2022-11-15T03:18:57;11.70;;;8.82;;
30888;SDS011;51092;50.874;7.024;2022-11-15T03:20:05;10.35;;;7.72;;
30888;SDS011;51092;50.874;7.024;2022-11-15T03:21:09;12.93;;;9.25;;
30888;SDS011;51092;50.874;7.024;2022-11-15T03:22:15;13.23;;;7.63;;
30888;SDS011;51092;50.874;7.024;2022-11-15T03:23:19;10.82;;;8.15;;
30888;SDS011;51092;50.874;7.024;2022-11-15T03:24:22;13.50;;;8.27;;
30888;SDS011;51092;50.874;7.024;2022-11-15T03:25:27;12.70;;;8.75;;
30888;SDS011;51092;50.874;7.024;2022-11-15T03:26:33;15.45;;;9.13;;
30888;SDS011;51092;50.874;7.024;2022-11-15T03:27:37;11.10;;;7.88;;
30888;SDS011;51092;50.874;7.024;2022-11-15T03:28:44;9.68;;;7.80;;
30888;SDS011;51092;50.874;7.024;2022-11-15T03:29:51;9.20;;;8.20;;
30888;SDS011;51092;50.874;7.024;2022-11-15T03:30:57;13.05;;;9.15;;
30888;SDS011;51092;50.874;7.024;2022-11-15T03:32:05;10.38;;;7.68;;
30888;SDS011;51092;50.874;7.024;2022-11-15T03:33:11;11.77;;;8.07;;
30888;SDS011;51092;50.874;7.024;2022-11-15T03:34:15;10.23;;;7.15;;
30888;SDS011;51092;50.874;7.024;2022-11-15T03:35:24;14.25;;;7.80;;
30888;SDS011;51092;50.874;7.024;2022-11-15T03:36:28;9.70;;;8.10;;
30888;SDS011;51092;50.874;7.024;2022-11-15T03:37:33;10.88;;;8.35;;
30888;SDS011;51092;50.874;7.024;2022-11-15T03:38:39;9.90;;;7.85;;
30888;SDS011;51092;50.874;7.024;2022-11-15T03:39:42;9.70;;;8.27;;
30888;SDS011;51092;50.874;7.024;2022-11-15T03:40:47;11.35;;;8.98;;
30888;SDS011;51092;50.874;7.024;2022-11-15T03:41:56;9.45;;;7.80;;
30888;SDS011;51092;50.874;7.024;2022-11-15T03:43:08;10.77;;;8.07;;
30888;SDS011;51092;50.874;7.024;2022-11-15T03:44:17;15.90;;;8.88;;
30888;SDS011;51092;50.874;7.024;2022-11-15T03:45:28;9.18;;;8.05;;
30888;SDS011;51092;50.874;7.024;2022-11-15T03:46:39;9.05;;;7.78;;
30888;SDS011;51092;50.874;7.024;2022-11-15T03:47:49;12.73;;;8.10;;
30888;SDS011;51092;50.874;7.024;2022-11-15T03:48:56;9.27;;;8.13;;
30888;SDS011;51092;50.874;7.024;2022-11-15T03:50:04;10.73;;;9.50;;
30888;SDS011;51092;50.874;7.024;2022-11-15T03:51:10;10.43;;;8.68;;
30888;SDS011;51092;50.874;7.024;2022-11-15T03:52:12;9.35;;;8.40;;
30888;SDS011;51092;50.874;7.024;2022-11-15T03:53:19;12.70;;;8.25;;
30888;SDS011;51092;50.874;7.024;2022-11-15T03:54:21;10.73;;;8.43;;
30888;SDS011;51092;50.874;7.024;2022-11-15T03:55:23;12.52;;;7.78;;
30888;SDS011;51092;50.874;7.024;2022-11-15T03:56:25;12.68;;;8.30;;
30888;SDS011;51092;50.874;7.024;2022-11-15T03:57:27;12.90;;;8.80;;
30888;SDS011;51092;50.874;7.024;2022-11-15T03:58:31;11.15;;;8.13;;
30888;SDS011;51092;50.874;7.024;2022-11-15T03:59:33;11.60;;;8.63;;
30888;SDS011;51092;50.874;7.024;2022-11-15T04:00:36;10.85;;;8.77;;
30888;SDS011;51092;50.874;7.024;2022-11-15T04:01:37;11.70;;;8.48;;
30888;SDS011;51092;50.874;7.024;2022-11-15T04:02:40;10.80;;;8.93;;
30888;SDS011;51092;50.874;7.024;2022-11-15T04:03:43;9.77;;;8.77;;
30888;SDS011;51092;50.874;7.024;2022-11-15T04:04:46;10.18;;;8.27;;
30888;SDS011;51092;50.874;7.024;2022-11-15T04:05:47;10.90;;;8.57;;
30888;SDS011;51092;50.874;7.024;2022-11-15T04:06:50;10.95;;;8.98;;
30888;SDS011;51092;50.874;7.024;2022-11-15T04:07:52;10.40;;;8.35;;
30888;SDS011;51092;50.874;7.024;2022-11-15T04:08:54;11.75;;;8.60;;
30888;SDS011;51092;50.874;7.024;2022-11-15T04:09:57;9.32;;;8.40;;
30888;SDS011;51092;50.874;7.024;2022-11-15T04:11:04;9.30;;;8.05;;
30888;SDS011;51092;50.874;7.024;2022-11-15T04:12:06;10.35;;;8.00;;
30888;SDS011;51092;50.874;7.024;2022-11-15T04:13:08;11.18;;;9.00;;
30888;SDS011;51092;50.874;7.024;2022-11-15T04:14:10;12.10;;;8.57;;
30888;SDS011;51092;50.874;7.024;2022-11-15T04:15:13;8.95;;;8.05;;
30888;SDS011;51092;50.874;7.024;2022-11-15T04:16:16;9.60;;;8.60;;
30888;SDS011;51092;50.874;7.024;2022-11-15T04:17:18;9.43;;;8.23;;
30888;SDS011;51092;50.874;7.024;2022-11-15T04:18:20;9.48;;;8.48;;
30888;SDS011;51092;50.874;7.024;2022-11-15T04:19:24;9.85;;;8.25;;
30888;SDS011;51092;50.874;7.024;2022-11-15T04:20:58;13.43;;;8.07;;
30888;SDS011;51092;50.874;7.024;2022-11-15T04:22:19;9.30;;;8.37;;
30888;SDS011;51092;50.874;7.024;2022-11-15T04:23:50;10.52;;;8.38;;
30888;SDS011;51092;50.874;7.024;2022-11-15T04:25:10;9.05;;;7.55;;
30888;SDS011;51092;50.874;7.024;2022-11-15T04:26:14;10.27;;;7.20;;
30888;SDS011;51092;50.874;7.024;2022-11-15T04:27:17;9.68;;;7.32;;
30888;SDS011;51092;50.874;7.024;2022-11-15T04:28:20;9.93;;;8.30;;
30888;SDS011;51092;50.874;7.024;2022-11-15T04:29:22;9.05;;;8.15;;
30888;SDS011;51092;50.874;7.024;2022-11-15T04:30:36;8.95;;;7.88;;
30888;SDS011;51092;50.874;7.024;2022-11-15T04:31:38;10.10;;;7.70;;
30888;SDS011;51092;50.874;7.024;2022-11-15T04:32:41;8.57;;;7.68;;
30888;SDS011;51092;50.874;7.024;2022-11-15T04:33:42;8.75;;;7.70;;
30888;SDS011;51092;50.874;7.024;2022-11-15T04:34:47;8.93;;;7.43;;
30888;SDS011;51092;50.874;7.024;2022-11-15T04:35:49;13.10;;;7.47;;
30888;SDS011;51092;50.874;7.024;2022-11-15T04:37:05;10.55;;;8.52;;
30888;SDS011;51092;50.874;7.024;2022-11-15T04:38:13;8.50;;;7.38;;
30888;SDS011;51092;50.874;7.024;2022-11-15T04:39:15;11.30;;;7.95;;
30888;SDS011;51092;50.874;7.024;2022-11-15T04:40:18;8.48;;;7.05;;
30888;SDS011;51092;50.874;7.024;2022-11-15T04:41:19;8.73;;;7.82;;
30888;SDS011;51092;50.874;7.024;2022-11-15T04:42:22;11.95;;;8.20;;
30888;SDS011;51092;50.874;7.024;2022-11-15T04:43:24;8.20;;;7.07;;
30888;SDS011;51092;50.874;7.024;2022-11-15T04:44:26;9.75;;;7.47;;
30888;SDS011;51092;50.874;7.024;2022-11-15T04:45:29;9.10;;;7.80;;
30888;SDS011;51092;50.874;7.024;2022-11-15T04:46:31;8.82;;;7.30;;
30888;SDS011;51092;50.874;7.024;2022-11-15T04:47:33;9.57;;;7.93;;
30888;SDS011;51092;50.874;7.024;2022-11-15T04:48:35;9.63;;;7.18;;
30888;SDS011;51092;50.874;7.024;2022-11-15T04:49:38;8.32;;;7.35;;
30888;SDS011;51092;50.874;7.024;2022-11-15T04:50:41;9.77;;;7.97;;
30888;SDS011;51092;50.874;7.024;2022-11-15T04:51:44;8.40;;;7.50;;
30888;SDS011;51092;50.874;7.024;2022-11-15T04:52:50;9.85;;;7.25;;
30888;SDS011;51092;50.874;7.024;2022-11-15T04:53:53;8.35;;;6.60;;
30888;SDS011;51092;50.874;7.024;2022-11-15T04:54:55;8.18;;;7.43;;
30888;SDS011;51092;50.874;7.024;2022-11-15T04:55:57;8.88;;;7.20;;
30888;SDS011;51092;50.874;7.024;2022-11-15T04:56:59;7.93;;;7.13;;
30888;SDS011;51092;50.874;7.024;2022-11-15T04:58:02;9.02;;;8.10;;
30888;SDS011;51092;50.874;7.024;2022-11-15T04:59:04;8.20;;;7.40;;
30888;SDS011;51092;50.874;7.024;2022-11-15T05:00:07;8.30;;;7.30;;
30888;SDS011;51092;50.874;7.024;2022-11-15T05:01:11;8.27;;;7.47;;
30888;SDS011;51092;50.874;7.024;2022-11-15T05:02:15;8.75;;;7.95;;
30888;SDS011;51092;50.874;7.024;2022-11-15T05:03:17;10.48;;;8.48;;
30888;SDS011;51092;50.874;7.024;2022-11-15T05:04:37;8.68;;;7.50;;
30888;SDS011;51092;50.874;7.024;2022-11-15T05:05:42;9.98;;;7.78;;
30888;SDS011;51092;50.874;7.024;2022-11-15T05:06:43;8.90;;;7.35;;
30888;SDS011;51092;50.874;7.024;2022-11-15T05:07:46;8.20;;;7.40;;
30888;SDS011;51092;50.874;7.024;2022-11-15T05:08:47;7.80;;;7.00;;
30888;SDS011;51092;50.874;7.024;2022-11-15T05:09:49;8.02;;;6.75;;
30888;SDS011;51092;50.874;7.024;2022-11-15T05:10:51;10.15;;;6.82;;
30888;SDS011;51092;50.874;7.024;2022-11-15T05:11:53;8.88;;;7.40;;
30888;SDS011;51092;50.874;7.024;2022-11-15T05:12:54;10.40;;;8.38;;
30888;SDS011;51092;50.874;7.024;2022-11-15T05:13:57;10.35;;;7.85;;
30888;SDS011;51092;50.874;7.024;2022-11-15T05:14:59;9.82;;;8.45;;
30888;SDS011;51092;50.874;7.024;2022-11-15T05:16:01;7.72;;;6.65;;
30888;SDS011;51092;50.874;7.024;2022-11-15T05:17:03;11.15;;;7.20;;
30888;SDS011;51092;50.874;7.024;2022-11-15T05:18:09;7.60;;;6.88;;
30888;SDS011;51092;50.874;7.024;2022-11-15T05:19:10;8.02;;;7.10;;
30888;SDS011;51092;50.874;7.024;2022-11-15T05:20:13;8.02;;;6.97;;
30888;SDS011;51092;50.874;7.024;2022-11-15T05:21:16;8.85;;;7.95;;
30888;SDS011;51092;50.874;7.024;2022-11-15T05:22:19;10.10;;;7.25;;
30888;SDS011;51092;50.874;7.024;2022-11-15T05:23:21;9.18;;;7.80;;
30888;SDS011;51092;50.874;7.024;2022-11-15T05:24:23;7.10;;;6.40;;
30888;SDS011;51092;50.874;7.024;2022-11-15T05:25:25;8.82;;;6.93;;
30888;SDS011;51092;50.874;7.024;2022-11-15T05:26:28;9.82;;;7.18;;
30888;SDS011;51092;50.874;7.024;2022-11-15T05:27:30;6.97;;;6.05;;
30888;SDS011;51092;50.874;7.024;2022-11-15T05:28:33;9.07;;;6.90;;
30888;SDS011;51092;50.874;7.024;2022-11-15T05:29:35;9.57;;;7.43;;
30888;SDS011;51092;50.874;7.024;2022-11-15T05:30:37;8.93;;;7.22;;
30888;SDS011;51092;50.874;7.024;2022-11-15T05:31:39;7.03;;;6.30;;
30888;SDS011;51092;50.874;7.024;2022-11-15T05:32:42;7.47;;;6.68;;
30888;SDS011;51092;50.874;7.024;2022-11-15T05:33:43;8.68;;;7.38;;
30888;SDS011;51092;50.874;7.024;2022-11-15T05:34:46;9.63;;;6.97;;
30888;SDS011;51092;50.874;7.024;2022-11-15T05:35:48;8.57;;;7.10;;
30888;SDS011;51092;50.874;7.024;2022-11-15T05:36:57;7.70;;;6.88;;
30888;SDS011;51092;50.874;7.024;2022-11-15T05:38:00;8.80;;;6.93;;
30888;SDS011;51092;50.874;7.024;2022-11-15T05:39:02;7.72;;;6.93;;
30888;SDS011;51092;50.874;7.024;2022-11-15T05:40:06;9.20;;;6.97;;
30888;SDS011;51092;50.874;7.024;2022-11-15T05:41:09;6.97;;;6.28;;
30888;SDS011;51092;50.874;7.024;2022-11-15T05:42:12;8.25;;;7.22;;
30888;SDS011;51092;50.874;7.024;2022-11-15T05:43:16;8.15;;;6.68;;
30888;SDS011;51092;50.874;7.024;2022-11-15T05:44:19;7.40;;;6.60;;
30888;SDS011;51092;50.874;7.024;2022-11-15T05:45:24;10.40;;;7.38;;
30888;SDS011;51092;50.874;7.024;2022-11-15T05:46:25;7.43;;;6.70;;
30888;SDS011;51092;50.874;7.024;2022-11-15T05:47:28;7.85;;;7.00;;
30888;SDS011;51092;50.874;7.024;2022-11-15T05:48:31;7.53;;;6.25;;
30888;SDS011;51092;50.874;7.024;2022-11-15T05:49:34;9.30;;;7.32;;
30888;SDS011;51092;50.874;7.024;2022-11-15T05:50:36;6.32;;;5.70;;
30888;SDS011;51092;50.874;7.024;2022-11-15T05:51:42;8.07;;;5.93;;
30888;SDS011;51092;50.874;7.024;2022-11-15T05:52:47;6.75;;;5.97;;
30888;SDS011;51092;50.874;7.024;2022-11-15T05:53:50;8.27;;;6.10;;
30888;SDS011;51092;50.874;7.024;2022-11-15T05:54:53;8.90;;;6.13;;
30888;SDS011;51092;50.874;7.024;2022-11-15T05:55:57;10.93;;;7.78;;
30888;SDS011;51092;50.874;7.024;2022-11-15T05:56:59;7.57;;;6.88;;
30888;SDS011;51092;50.874;7.024;2022-11-15T05:58:02;8.88;;;6.13;;
30888;SDS011;51092;50.874;7.024;2022-11-15T05:59:04;6.97;;;6.28;;
30888;SDS011;51092;50.874;7.024;2022-11-15T06:00:08;9.45;;;6.03;;
30888;SDS011;51092;50.874;7.024;2022-11-15T06:01:10;6.72;;;5.88;;
30888;SDS011;51092;50.874;7.024;2022-11-15T06:02:13;8.40;;;6.10;;
30888;SDS011;51092;50.874;7.024;2022-11-15T06:03:14;6.78;;;4.55;;
30888;SDS011;51092;50.874;7.024;2022-11-15T06:04:17;6.72;;;5.75;;
30888;SDS011;51092;50.874;7.024;2022-11-15T06:05:18;9.20;;;5.43;;
30888;SDS011;51092;50.874;7.024;2022-11-15T06:06:21;6.88;;;5.05;;
30888;SDS011;51092;50.874;7.024;2022-11-15T06:07:23;8.27;;;5.78;;
30888;SDS011;51092;50.874;7.024;2022-11-15T06:08:27;7.40;;;5.63;;
30888;SDS011;51092;50.874;7.024;2022-11-15T06:09:28;7.97;;;5.10;;
30888;SDS011;51092;50.874;7.024;2022-11-15T06:10:31;6.57;;;5.90;;
30888;SDS011;51092;50.874;7.024;2022-11-15T06:11:33;6.75;;;5.10;;
30888;SDS011;51092;50.874;7.024;2022-11-15T06:12:36;7.15;;;4.55;;
30888;SDS011;51092;50.874;7.024;2022-11-15T06:13:39;6.15;;;5.10;;
30888;SDS011;51092;50.874;7.024;2022-11-15T06:14:40;7.65;;;5.80;;
30888;SDS011;51092;50.874;7.024;2022-11-15T06:15:43;5.93;;;5.40;;
30888;SDS011;51092;50.874;7.024;2022-11-15T06:16:45;5.57;;;4.32;;
30888;SDS011;51092;50.874;7.024;2022-11-15T06:17:48;8.65;;;6.22;;
30888;SDS011;51092;50.874;7.024;2022-11-15T06:18:50;8.18;;;5.70;;
30888;SDS011;51092;50.874;7.024;2022-11-15T06:19:52;6.82;;;5.80;;
30888;SDS011;51092;50.874;7.024;2022-11-15T06:20:58;6.32;;;5.72;;
30888;SDS011;51092;50.874;7.024;2022-11-15T06:22:01;8.40;;;5.55;;
30888;SDS011;51092;50.874;7.024;2022-11-15T06:23:03;7.68;;;6.03;;
30888;SDS011;51092;50.874;7.024;2022-11-15T06:24:07;8.30;;;6.00;;
30888;SDS011;51092;50.874;7.024;2022-11-15T06:25:10;7.10;;;5.70;;
30888;SDS011;51092;50.874;7.024;2022-11-15T06:26:12;5.53;;;5.03;;
30888;SDS011;51092;50.874;7.024;2022-11-15T06:27:14;9.57;;;5.65;;